Time;durP1;ratioP1;P1;durP2;ratioP2;P2;SDS_P1;SDS_P2;PMS_P1;PMS_P2;Temp;Humidity;BMP_temperature;BMP_pressure;BME280_temperature;BME280_humidity;BME280_pressure;Samples;Min_cycle;Max_cycle;Signal;HPM_P1;HPM_P2
2022/02/22 00:00:46;;;;;;;2.08;0.47;;;;;;;-0.31;100.00;99765.50;4757911;30;20035;-78
2022/02/22 00:03:12;;;;;;;2.88;0.50;;;;;;;-0.41;100.00;99751.53;4757204;30;20401;-78
2022/02/22 00:05:38;;;;;;;1.02;0.50;;;;;;;-0.34;100.00;99771.06;4771215;30;20042;-78
2022/02/22 00:08:05;;;;;;;2.95;0.60;;;;;;;-0.24;100.00;99774.44;4771200;30;20076;-79
2022/02/22 00:10:30;;;;;;;1.63;0.47;;;;;;;-0.37;100.00;99774.03;4772265;30;20039;-78
2022/02/22 00:12:57;;;;;;;1.90;0.50;;;;;;;-0.28;100.00;99770.47;4770336;30;20049;-79
2022/02/22 00:15:23;;;;;;;1.90;0.43;;;;;;;-0.31;100.00;99779.53;4772184;30;20124;-78
2022/02/22 00:17:48;;;;;;;1.95;0.40;;;;;;;-0.40;100.00;99790.19;4770299;30;20032;-78
2022/02/22 00:20:16;;;;;;;1.60;0.55;;;;;;;-0.38;100.00;99804.91;4771791;30;20032;-78
2022/02/22 00:22:42;;;;;;;0.80;0.47;;;;;;;-0.36;100.00;99823.28;4773496;30;20036;-78
2022/02/22 00:25:12;;;;;;;0.60;0.40;;;;;;;-0.22;100.00;99838.59;4771747;30;20043;-78
2022/02/22 00:27:42;;;;;;;2.22;0.50;;;;;;;-0.28;100.00;99853.25;4771650;30;20035;-78
2022/02/22 00:30:09;;;;;;;1.27;0.50;;;;;;;-0.17;100.00;99841.59;4770590;30;20100;-78
2022/02/22 00:32:34;;;;;;;3.03;0.60;;;;;;;-0.14;100.00;99848.38;4770772;30;20478;-78
2022/02/22 00:35:00;;;;;;;1.30;0.50;;;;;;;-0.28;100.00;99831.25;4772354;30;20044;-79
2022/02/22 00:37:25;;;;;;;2.13;0.60;;;;;;;-0.36;100.00;99844.44;4774355;30;20438;-78
2022/02/22 00:39:50;;;;;;;1.02;0.50;;;;;;;-0.54;100.00;99831.22;4757883;30;20031;-78
2022/02/22 00:42:16;;;;;;;1.20;0.60;;;;;;;-0.37;100.00;99861.25;4772586;30;20379;-78
2022/02/22 00:44:42;;;;;;;1.45;0.52;;;;;;;-0.26;100.00;99855.75;4773733;30;20040;-78
2022/02/22 00:47:08;;;;;;;2.60;0.60;;;;;;;-0.33;100.00;99859.97;4756203;30;20524;-79
2022/02/22 00:49:33;;;;;;;1.77;0.50;;;;;;;-0.36;100.00;99869.03;4770857;30;20074;-79
2022/02/22 00:51:59;;;;;;;1.63;0.57;;;;;;;-0.33;100.00;99873.16;4770882;30;20029;-78
2022/02/22 00:54:24;;;;;;;1.13;0.57;;;;;;;-0.27;100.00;99875.22;4771341;30;20463;-78
2022/02/22 00:56:50;;;;;;;1.80;0.50;;;;;;;-0.20;100.00;99873.63;4772465;30;20134;-78
2022/02/22 00:59:15;;;;;;;2.40;0.50;;;;;;;-0.18;100.00;99884.88;4774060;30;20035;-79
2022/02/22 01:01:40;;;;;;;1.85;0.50;;;;;;;-0.32;100.00;99896.81;4770120;30;20044;-79
2022/02/22 01:04:07;;;;;;;1.50;0.50;;;;;;;-0.29;100.00;99908.91;4769644;30;20039;-78
2022/02/22 01:06:32;;;;;;;1.17;0.50;;;;;;;-0.33;100.00;99912.81;4772803;30;20031;-79
2022/02/22 01:08:59;;;;;;;2.78;0.60;;;;;;;-0.29;100.00;99896.53;4774192;30;20043;-79
2022/02/22 01:11:25;;;;;;;1.65;0.40;;;;;;;-0.45;100.00;99872.59;4772253;30;20114;-79
2022/02/22 01:13:50;;;;;;;0.65;0.25;;;;;;;-0.20;100.00;99917.72;4769683;30;20119;-78
2022/02/22 01:16:16;;;;;;;1.10;0.50;;;;;;;-0.24;100.00;99922.50;4769388;30;20501;-79
2022/02/22 01:18:41;;;;;;;1.85;0.65;;;;;;;-0.16;100.00;99929.69;4771137;30;20032;-79
2022/02/22 01:21:06;;;;;;;1.25;0.52;;;;;;;-0.18;100.00;99926.34;4775316;30;20049;-78
2022/02/22 01:23:32;;;;;;;0.88;0.50;;;;;;;-0.23;100.00;99940.03;4772901;30;20562;-78
2022/02/22 01:25:59;;;;;;;0.80;0.40;;;;;;;-0.21;100.00;99953.09;4780784;30;20406;-78
2022/02/22 01:28:25;;;;;;;1.33;0.40;;;;;;;-0.26;100.00;99945.63;4766868;30;20073;-78
2022/02/22 01:30:50;;;;;;;1.52;0.60;;;;;;;-0.22;100.00;99946.16;4788869;30;20118;-77
2022/02/22 01:33:16;;;;;;;2.20;0.90;;;;;;;-0.44;100.00;99899.84;4789320;29;20143;-79
2022/02/22 01:35:41;;;;;;;0.82;0.50;;;;;;;-0.18;100.00;99952.78;4780436;30;20035;-78
2022/02/22 01:38:06;;;;;;;1.23;0.55;;;;;;;-0.46;100.00;99921.16;4770823;30;20175;-78
2022/02/22 01:40:32;;;;;;;2.40;0.70;;;;;;;-0.43;100.00;99942.00;4768117;30;20039;-79
2022/02/22 01:42:57;;;;;;;1.60;0.60;;;;;;;-0.29;100.00;99977.66;4769938;30;20027;-79
2022/02/22 01:45:23;;;;;;;1.63;0.43;;;;;;;-0.36;100.00;99990.63;4769590;30;20039;-78
2022/02/22 01:47:49;;;;;;;1.02;0.55;;;;;;;-0.32;100.00;99983.22;4769095;30;20054;-79
2022/02/22 01:50:15;;;;;;;2.22;0.68;;;;;;;-0.37;100.00;99975.72;4770113;30;20042;-79
2022/02/22 01:52:40;;;;;;;0.65;0.40;;;;;;;-0.41;100.00;99984.13;4769360;30;20031;-78
2022/02/22 01:55:06;;;;;;;1.73;0.50;;;;;;;-0.35;100.00;99984.34;4771504;30;20566;-78
2022/02/22 01:57:33;;;;;;;1.08;0.47;;;;;;;-0.31;100.00;99987.53;4769502;30;20546;-78
2022/02/22 01:59:59;;;;;;;1.17;0.50;;;;;;;-0.37;100.00;99986.31;4771195;30;20108;-78
2022/02/22 02:02:25;;;;;;;1.02;0.40;;;;;;;-0.38;100.00;99992.56;4776472;30;20114;-79
2022/02/22 02:04:50;;;;;;;1.23;0.52;;;;;;;-0.45;100.00;100014.47;4769444;30;20070;-78
2022/02/22 02:07:15;;;;;;;1.92;0.70;;;;;;;-0.58;100.00;100007.72;4768381;30;20063;-78
2022/02/22 02:09:41;;;;;;;2.15;0.80;;;;;;;-0.58;100.00;100022.75;4770252;30;20050;-78
2022/02/22 02:12:06;;;;;;;0.90;0.50;;;;;;;-0.63;100.00;100009.13;4769146;30;20031;-78
2022/02/22 02:14:32;;;;;;;1.17;0.60;;;;;;;-0.43;100.00;100031.00;4772834;30;20128;-78
2022/02/22 02:16:58;;;;;;;1.95;0.63;;;;;;;-0.45;100.00;100044.38;4772013;30;20031;-78
2022/02/22 02:19:24;;;;;;;1.02;0.60;;;;;;;-0.52;100.00;100036.19;4769586;30;20043;-78
2022/02/22 02:21:50;;;;;;;1.83;0.47;;;;;;;-0.48;100.00;100048.13;4788451;30;20043;-78
2022/02/22 02:24:18;;;;;;;2.08;0.60;;;;;;;-0.60;100.00;100046.66;4788543;29;20485;-78
2022/02/22 02:26:45;;;;;;;1.13;0.60;;;;;;;-0.54;100.00;100053.16;4788070;30;20039;-78
2022/02/22 02:29:13;;;;;;;1.60;0.52;;;;;;;-0.61;100.00;100047.63;4772920;30;20035;-79
2022/02/22 02:31:41;;;;;;;1.17;0.57;;;;;;;-0.56;100.00;100060.44;4771657;30;20480;-78
2022/02/22 02:34:10;;;;;;;1.40;0.60;;;;;;;-0.56;100.00;100065.72;4769904;30;20502;-78
2022/02/22 02:36:36;;;;;;;1.23;0.50;;;;;;;-0.58;100.00;100065.84;4769191;30;20052;-79
2022/02/22 02:39:04;;;;;;;1.23;0.50;;;;;;;-0.61;100.00;100063.50;4771410;30;20120;-78
2022/02/22 02:41:29;;;;;;;1.50;0.50;;;;;;;-0.51;100.00;100077.50;4772508;30;20031;-78
2022/02/22 02:44:05;;;;;;;1.75;0.55;;;;;;;-0.49;100.00;100077.34;4772403;30;20452;-78
2022/02/22 02:46:31;;;;;;;1.63;0.50;;;;;;;-0.32;100.00;100097.72;4772241;30;20530;-78
2022/02/22 02:48:56;;;;;;;0.93;0.40;;;;;;;-0.36;100.00;100095.53;4776328;30;20070;-78
2022/02/22 02:51:22;;;;;;;2.38;0.40;;;;;;;-0.29;100.00;100115.94;4743317;30;20035;-78
2022/02/22 02:53:52;;;;;;;1.73;0.35;;;;;;;-0.52;100.00;100073.19;4773300;30;20042;-78
2022/02/22 02:56:23;;;;;;;0.80;0.28;;;;;;;-0.14;100.00;100132.13;4772551;30;20035;-79
2022/02/22 02:58:51;;;;;;;1.92;0.52;;;;;;;-0.13;100.00;100133.81;4772972;30;20039;-78
2022/02/22 03:01:16;;;;;;;1.05;0.40;;;;;;;-0.17;100.00;100140.34;4772583;30;20416;-78
2022/02/22 03:03:41;;;;;;;1.35;0.70;;;;;;;-0.29;100.00;100139.72;4757807;30;20024;-78
2022/02/22 03:06:07;;;;;;;1.50;0.52;;;;;;;-0.19;100.00;100128.28;4771884;30;20036;-78
2022/02/22 03:08:32;;;;;;;1.45;0.68;;;;;;;-0.48;100.00;100116.84;4756853;30;20051;-77
2022/02/22 03:10:57;;;;;;;0.75;0.40;;;;;;;-0.32;100.00;100157.69;4742020;30;20076;-78
2022/02/22 03:13:23;;;;;;;2.22;0.70;;;;;;;-0.34;100.00;100143.78;4771852;30;20032;-78
2022/02/22 03:15:48;;;;;;;1.25;0.35;;;;;;;-0.35;100.00;100144.78;4773032;30;20060;-78
2022/02/22 03:18:13;;;;;;;1.52;0.55;;;;;;;-0.41;100.00;100137.41;4775153;30;20351;-78
2022/02/22 03:20:39;;;;;;;1.77;0.50;;;;;;;-0.37;100.00;100155.47;4772265;30;20070;-78
2022/02/22 03:23:04;;;;;;;1.75;0.50;;;;;;;-0.48;100.00;100166.22;4772632;30;20031;-78
2022/02/22 03:25:29;;;;;;;1.10;0.50;;;;;;;-0.49;100.00;100178.63;4738861;30;20101;-78
2022/02/22 03:27:55;;;;;;;0.80;0.40;;;;;;;-0.58;100.00;100170.72;4755651;30;20028;-78
2022/02/22 03:30:21;;;;;;;1.15;0.60;;;;;;;-0.64;100.00;100174.75;4762664;30;20386;-78
2022/02/22 03:32:47;;;;;;;0.90;0.52;;;;;;;-0.61;100.00;100200.88;4773859;30;20042;-78
2022/02/22 03:35:13;;;;;;;1.48;0.70;;;;;;;-0.62;100.00;100177.25;4771994;30;20036;-78
2022/02/22 03:37:38;;;;;;;1.67;0.50;;;;;;;-0.61;100.00;100200.06;4772109;30;20038;-78
2022/02/22 03:40:04;;;;;;;1.00;0.40;;;;;;;-0.64;100.00;100190.59;4772013;30;20046;-78
2022/02/22 03:42:31;;;;;;;2.55;0.50;;;;;;;-0.77;100.00;100190.88;4771271;30;20039;-78
2022/02/22 03:44:56;;;;;;;1.23;0.50;;;;;;;-0.61;100.00;100200.88;4756900;30;20111;-79
2022/02/22 03:47:21;;;;;;;1.10;0.40;;;;;;;-0.65;100.00;100199.50;4757738;30;20126;-78
2022/02/22 03:49:47;;;;;;;1.45;0.50;;;;;;;-0.77;100.00;100213.84;4769684;30;20047;-78
2022/02/22 03:52:12;;;;;;;0.93;0.40;;;;;;;-0.69;100.00;100218.44;4769738;30;20055;-78
2022/02/22 03:54:37;;;;;;;0.75;0.30;;;;;;;-0.91;100.00;100178.13;4756978;30;20123;-78
2022/02/22 03:57:03;;;;;;;1.13;0.50;;;;;;;-0.75;100.00;100214.53;4775593;30;20790;-78
2022/02/22 03:59:28;;;;;;;2.47;0.52;;;;;;;-0.78;100.00;100239.41;4775200;30;20043;-78
2022/02/22 04:01:55;;;;;;;1.45;0.30;;;;;;;-0.79;100.00;100250.13;4772653;30;20066;-78
2022/02/22 04:04:20;;;;;;;0.80;0.30;;;;;;;-0.75;100.00;100241.78;4772605;30;20047;-78
2022/02/22 04:06:46;;;;;;;0.85;0.40;;;;;;;-0.82;100.00;100247.78;4772584;30;20023;-78
2022/02/22 04:09:11;;;;;;;2.50;0.43;;;;;;;-0.74;100.00;100251.38;4772630;30;20109;-78
2022/02/22 04:11:37;;;;;;;1.70;0.30;;;;;;;-0.84;100.00;100249.72;4771737;30;20130;-78
2022/02/22 04:14:02;;;;;;;0.75;0.20;;;;;;;-0.74;100.00;100269.03;4770387;30;20036;-78
2022/02/22 04:16:27;;;;;;;1.67;0.45;;;;;;;-0.64;100.00;100269.84;4771247;30;20059;-77
2022/02/22 04:18:53;;;;;;;1.45;0.50;;;;;;;-0.80;100.00;100257.19;4769772;30;20039;-78
2022/02/22 04:21:18;;;;;;;0.57;0.40;;;;;;;-0.74;100.00;100279.59;4770960;30;20344;-78
2022/02/22 04:23:44;;;;;;;0.98;0.30;;;;;;;-0.68;100.00;100286.16;4771548;30;20042;-78
2022/02/22 04:26:11;;;;;;;1.15;0.40;;;;;;;-0.74;100.00;100287.53;4753359;30;20471;-78
2022/02/22 04:28:36;;;;;;;1.02;0.60;;;;;;;-0.75;100.00;100291.16;4772668;30;20032;-78
2022/02/22 04:31:01;;;;;;;0.85;0.30;;;;;;;-0.72;100.00;100289.06;4755625;30;20031;-78
2022/02/22 04:33:27;;;;;;;1.02;0.50;;;;;;;-0.72;100.00;100290.88;4757125;30;20122;-78
2022/02/22 04:35:52;;;;;;;0.52;0.25;;;;;;;-0.83;100.00;100267.22;4771000;30;20032;-78
2022/02/22 04:38:18;;;;;;;1.05;0.30;;;;;;;-0.75;100.00;100304.34;4741934;30;20125;-78
2022/02/22 04:40:43;;;;;;;1.27;0.30;;;;;;;-0.69;100.00;100295.88;4773664;30;20052;-78
2022/02/22 04:43:09;;;;;;;0.88;0.28;;;;;;;-0.68;100.00;100294.91;4773430;30;20081;-78
2022/02/22 04:45:34;;;;;;;0.63;0.25;;;;;;;-0.72;100.00;100293.50;4755658;30;20065;-78
2022/02/22 04:47:59;;;;;;;0.88;0.30;;;;;;;-0.78;100.00;100276.41;4770071;30;20492;-77
2022/02/22 04:50:25;;;;;;;1.23;0.50;;;;;;;-0.68;100.00;100294.06;4770650;30;20039;-77
2022/02/22 04:52:50;;;;;;;0.52;0.38;;;;;;;-0.60;100.00;100295.03;4770651;30;20036;-78
2022/02/22 04:55:16;;;;;;;0.85;0.28;;;;;;;-0.60;100.00;100305.59;4770350;30;20040;-78
2022/02/22 04:57:41;;;;;;;0.70;0.40;;;;;;;-0.64;100.00;100311.31;4773067;30;20051;-78
2022/02/22 05:00:12;;;;;;;1.27;0.40;;;;;;;-0.77;100.00;100309.75;4775879;30;20108;-78
2022/02/22 05:02:37;;;;;;;1.90;0.50;;;;;;;-0.72;100.00;100327.84;4771379;30;20070;-77
2022/02/22 05:05:03;;;;;;;1.25;0.40;;;;;;;-0.70;100.00;100317.97;4770923;30;20055;-78
2022/02/22 05:07:29;;;;;;;0.38;0.30;;;;;;;-0.65;100.00;100321.03;4774953;30;20036;-78
2022/02/22 05:09:54;;;;;;;1.77;0.30;;;;;;;-0.76;100.00;100329.13;4746059;30;20046;-78
2022/02/22 05:12:20;;;;;;;0.30;0.20;;;;;;;-0.72;100.00;100349.81;4774866;30;20031;-78
2022/02/22 05:14:45;;;;;;;0.93;0.40;;;;;;;-0.75;100.00;100349.28;4769586;30;20475;-78
2022/02/22 05:17:10;;;;;;;1.15;0.30;;;;;;;-1.01;100.00;100330.47;4768974;30;20062;-78
2022/02/22 05:19:36;;;;;;;0.55;0.30;;;;;;;-0.97;100.00;100331.84;4771233;30;20055;-78
2022/02/22 05:22:03;;;;;;;0.88;0.47;;;;;;;-0.85;100.00;100351.91;4754936;30;20465;-78
2022/02/22 05:24:28;;;;;;;0.85;0.30;;;;;;;-0.89;100.00;100328.50;4755984;30;20036;-78
2022/02/22 05:26:54;;;;;;;1.23;0.30;;;;;;;-0.82;100.00;100330.50;4769575;30;20344;-77
2022/02/22 05:29:19;;;;;;;0.52;0.30;;;;;;;-0.81;100.00;100344.53;4768711;30;20089;-77
2022/02/22 05:31:44;;;;;;;1.08;0.30;;;;;;;-1.04;100.00;100344.75;4769737;30;20032;-77
2022/02/22 05:34:10;;;;;;;0.65;0.30;;;;;;;-0.97;100.00;100345.88;4770395;30;20039;-78
2022/02/22 05:36:35;;;;;;;0.40;0.20;;;;;;;-0.89;100.00;100350.50;4770293;30;20173;-79
2022/02/22 05:39:01;;;;;;;1.48;0.40;;;;;;;-0.81;100.00;100355.94;4774518;30;20035;-78
2022/02/22 05:41:26;;;;;;;1.02;0.38;;;;;;;-1.10;100.00;100350.56;4771866;30;20115;-79
2022/02/22 05:43:52;;;;;;;0.75;0.40;;;;;;;-1.14;100.00;100359.75;4785276;29;20035;-78
2022/02/22 05:46:18;;;;;;;1.02;0.35;;;;;;;-1.26;100.00;100376.66;4791440;30;20519;-77
2022/02/22 05:48:44;;;;;;;1.25;0.47;;;;;;;-1.32;100.00;100366.66;4777781;30;20036;-77
2022/02/22 05:51:09;;;;;;;0.70;0.30;;;;;;;-1.23;100.00;100387.78;4769700;30;20360;-78
2022/02/22 05:53:35;;;;;;;0.60;0.30;;;;;;;-1.20;100.00;100384.03;4774923;30;20036;-78
2022/02/22 05:56:02;;;;;;;0.60;0.30;;;;;;;-1.15;100.00;100392.41;4769740;30;20040;-78
2022/02/22 05:58:27;;;;;;;0.47;0.30;;;;;;;-1.30;100.00;100391.91;4770176;30;20047;-78
2022/02/22 06:00:54;;;;;;;0.60;0.20;;;;;;;-1.27;100.00;100404.03;4768740;30;20043;-78
2022/02/22 06:03:20;;;;;;;0.45;0.30;;;;;;;-1.31;100.00;100407.91;4769577;30;20515;-78
2022/02/22 06:05:45;;;;;;;0.90;0.38;;;;;;;-1.35;100.00;100412.59;4770566;30;20066;-77
2022/02/22 06:08:10;;;;;;;1.20;0.60;;;;;;;-1.40;100.00;100404.22;4786570;30;20493;-78
2022/02/22 06:10:36;;;;;;;0.63;0.43;;;;;;;-1.28;100.00;100416.38;4748595;30;20155;-78
2022/02/22 06:13:01;;;;;;;0.95;0.50;;;;;;;-1.30;100.00;100405.13;4757422;30;20467;-78
2022/02/22 06:15:26;;;;;;;0.85;0.40;;;;;;;-1.18;100.00;100424.34;4770591;30;20059;-78
2022/02/22 06:17:52;;;;;;;2.60;0.55;;;;;;;-1.35;100.00;100388.03;4772428;30;20035;-78
2022/02/22 06:20:17;;;;;;;0.82;0.40;;;;;;;-1.18;100.00;100424.34;4768198;30;20036;-78
2022/02/22 06:22:45;;;;;;;1.10;0.30;;;;;;;-1.09;100.00;100434.13;4782902;29;20054;-78
2022/02/22 06:25:11;;;;;;;2.10;0.50;;;;;;;-1.04;100.00;100433.72;4775944;30;20067;-78
2022/02/22 06:28:04;;;;;;;1.00;0.47;;;;;;;-1.09;100.00;100427.97;4767677;30;20419;-79
2022/02/22 06:30:30;;;;;;;0.68;0.30;;;;;;;-1.27;100.00;100406.66;4769127;30;20036;-78
2022/02/22 06:32:55;;;;;;;0.70;0.30;;;;;;;-0.97;100.00;100440.13;4767993;30;20028;-78
2022/02/22 06:35:22;;;;;;;0.65;0.30;;;;;;;-1.05;100.00;100446.09;4768156;30;20062;-78
2022/02/22 06:37:48;;;;;;;0.75;0.35;;;;;;;-1.20;100.00;100434.19;4767459;30;20535;-78
2022/02/22 06:40:13;;;;;;;0.73;0.40;;;;;;;-1.03;100.00;100459.97;4764413;30;20032;-78
2022/02/22 06:42:39;;;;;;;1.15;0.40;;;;;;;-1.15;100.00;100434.66;4769557;30;20070;-79
2022/02/22 06:45:11;;;;;;;0.50;0.40;;;;;;;-1.00;100.00;100448.31;4769226;30;20058;-78
2022/02/22 06:47:39;;;;;;;0.40;0.30;;;;;;;-1.04;100.00;100468.88;4737801;30;20099;-78
2022/02/22 06:50:07;;;;;;;2.28;0.50;;;;;;;-0.95;100.00;100476.00;4766029;30;20035;-78
2022/02/22 06:52:32;;;;;;;1.67;0.30;;;;;;;-0.99;100.00;100456.13;4767894;30;20463;-78
2022/02/22 06:54:58;;;;;;;0.80;0.30;;;;;;;-0.95;100.00;100473.34;4768690;30;20043;-78
2022/02/22 06:57:23;;;;;;;1.02;0.40;;;;;;;-1.08;100.00;100446.34;4767023;30;20070;-78
2022/02/22 06:59:48;;;;;;;1.33;0.30;;;;;;;-0.99;100.00;100471.13;4770719;30;20036;-78
2022/02/22 07:02:14;;;;;;;0.85;0.25;;;;;;;-1.09;100.00;100449.09;4753611;30;20481;-78
2022/02/22 07:04:39;;;;;;;2.08;0.32;;;;;;;-0.97;100.00;100472.66;4777972;30;20497;-79
2022/02/22 07:07:07;;;;;;;0.95;0.25;;;;;;;-1.00;100.00;100467.63;4761528;30;20046;-80
2022/02/22 07:09:34;;;;;;;0.75;0.40;;;;;;;-0.92;100.00;100471.44;4773196;30;20147;-79
2022/02/22 07:12:00;;;;;;;0.57;0.30;;;;;;;-0.88;100.00;100483.41;4766488;30;20028;-78
2022/02/22 07:14:25;;;;;;;1.95;0.30;;;;;;;-0.99;100.00;100477.25;4768848;30;20079;-80
2022/02/22 07:16:52;;;;;;;1.08;0.25;;;;;;;-0.89;100.00;100482.56;4768265;30;20394;-79
2022/02/22 07:19:17;;;;;;;0.77;0.40;;;;;;;-0.89;100.00;100479.06;4784119;29;20034;-79
2022/02/22 07:21:43;;;;;;;1.05;0.47;;;;;;;-0.96;100.00;100458.50;4769305;30;20039;-79
2022/02/22 07:24:08;;;;;;;0.57;0.28;;;;;;;-0.81;100.00;100495.94;4771524;30;20067;-80
2022/02/22 07:26:33;;;;;;;0.82;0.40;;;;;;;-0.79;100.00;100490.53;4782450;30;20027;-80
2022/02/22 07:28:58;;;;;;;1.30;0.47;;;;;;;-0.89;100.00;100477.28;4760696;30;20043;-80
2022/02/22 07:31:24;;;;;;;0.60;0.30;;;;;;;-0.75;100.00;100490.13;4747165;30;20055;-79
2022/02/22 07:33:49;;;;;;;4.05;0.40;;;;;;;-0.83;100.00;100481.19;4777023;30;20035;-78
2022/02/22 07:36:15;;;;;;;0.63;0.30;;;;;;;-0.83;100.00;100500.53;4774835;30;20040;-78
2022/02/22 07:38:40;;;;;;;0.65;0.30;;;;;;;-0.96;100.00;100499.88;4771186;30;20417;-79
2022/02/22 07:41:05;;;;;;;1.38;0.30;;;;;;;-1.12;100.00;100457.31;4756319;30;20127;-79
2022/02/22 07:43:31;;;;;;;0.65;0.20;;;;;;;-0.75;100.00;100495.41;4771765;30;20070;-77
2022/02/22 07:45:56;;;;;;;0.65;0.28;;;;;;;-1.05;100.00;100461.91;4769721;30;20476;-79
2022/02/22 07:48:22;;;;;;;1.80;0.50;;;;;;;-0.72;100.00;100499.59;4773003;30;20383;-79
2022/02/22 07:50:47;;;;;;;0.93;0.40;;;;;;;-0.77;100.00;100475.38;4769805;30;20078;-79
2022/02/22 07:53:13;;;;;;;0.60;0.30;;;;;;;-0.68;100.00;100505.44;4771944;30;20037;-78
2022/02/22 07:55:39;;;;;;;0.60;0.30;;;;;;;-0.72;100.00;100489.84;4770778;30;20127;-78
2022/02/22 07:58:04;;;;;;;0.75;0.30;;;;;;;-0.71;100.00;100503.88;4771623;30;20042;-78
2022/02/22 08:00:30;;;;;;;0.47;0.30;;;;;;;-0.74;100.00;100496.22;4770849;30;20040;-78
2022/02/22 08:02:55;;;;;;;0.50;0.30;;;;;;;-0.55;100.00;100522.72;4771202;30;20058;-78
2022/02/22 08:05:22;;;;;;;0.55;0.40;;;;;;;-0.61;100.00;100527.72;4769042;30;20401;-78
2022/02/22 08:07:48;;;;;;;1.45;0.40;;;;;;;-0.52;100.00;100525.09;4770274;30;20024;-78
2022/02/22 08:10:14;;;;;;;0.93;0.30;;;;;;;-0.65;100.00;100499.88;4773637;30;20035;-78
2022/02/22 08:12:39;;;;;;;0.60;0.30;;;;;;;-0.54;100.00;100534.97;4780134;29;20542;-78
2022/02/22 08:15:05;;;;;;;0.82;0.20;;;;;;;-0.40;100.00;100535.56;4781212;30;20085;-80
2022/02/22 08:17:31;;;;;;;0.65;0.30;;;;;;;-0.43;100.00;100539.31;4777791;29;20129;-81
2022/02/22 08:19:57;;;;;;;0.50;0.20;;;;;;;-0.42;100.00;100537.50;4778304;30;20043;-81
2022/02/22 08:22:22;;;;;;;0.55;0.30;;;;;;;-0.54;100.00;100542.88;4747183;30;20028;-81
2022/02/22 08:24:47;;;;;;;0.93;0.30;;;;;;;-0.50;100.00;100540.81;4784553;30;20077;-81
2022/02/22 08:27:14;;;;;;;1.63;0.40;;;;;;;-0.36;100.00;100552.84;4782119;30;20039;-81
2022/02/22 08:29:40;;;;;;;1.13;0.30;;;;;;;-0.32;100.00;100552.44;4779125;29;20091;-81
2022/02/22 08:32:05;;;;;;;1.33;0.30;;;;;;;-0.25;100.00;100552.72;4783428;30;20032;-81
2022/02/22 08:34:32;;;;;;;0.50;0.28;;;;;;;-0.25;100.00;100550.06;4783815;30;20504;-80
2022/02/22 08:36:58;;;;;;;0.88;0.30;;;;;;;-0.44;100.00;100563.22;4777805;30;20097;-81
2022/02/22 08:39:25;;;;;;;0.65;0.30;;;;;;;-0.52;100.00;100548.88;4776847;30;20044;-81
2022/02/22 08:41:51;;;;;;;1.00;0.30;;;;;;;-0.18;100.00;100579.47;4780268;30;20073;-81
2022/02/22 08:44:17;;;;;;;0.98;0.30;;;;;;;-0.22;100.00;100583.34;4777054;30;20036;-81
2022/02/22 08:46:42;;;;;;;0.80;0.25;;;;;;;-0.14;100.00;100589.63;4792313;30;20042;-81
2022/02/22 08:49:08;;;;;;;0.52;0.30;;;;;;;-0.07;100.00;100571.41;4785301;30;20036;-81
2022/02/22 08:51:33;;;;;;;0.52;0.30;;;;;;;-0.20;100.00;100555.78;4769735;30;20088;-80
2022/02/22 08:53:59;;;;;;;3.28;0.50;;;;;;;-0.25;100.00;100563.31;4784497;30;20133;-80
2022/02/22 08:56:25;;;;;;;0.35;0.20;;;;;;;-0.21;100.00;100585.84;4787965;29;20040;-81
2022/02/22 08:58:52;;;;;;;0.63;0.32;;;;;;;-0.02;100.00;100595.66;4792434;30;20043;-81
2022/02/22 09:01:18;;;;;;;0.40;0.20;;;;;;;-0.12;100.00;100586.84;4785366;30;20546;-80
2022/02/22 09:03:44;;;;;;;0.50;0.22;;;;;;;0.04;100.00;100592.47;4786094;29;20048;-81
2022/02/22 09:06:10;;;;;;;0.77;0.40;;;;;;;0.05;100.00;100598.59;4778256;30;20039;-81
2022/02/22 09:08:36;;;;;;;0.65;0.20;;;;;;;0.09;100.00;100594.69;4783526;30;20035;-80
2022/02/22 09:11:02;;;;;;;0.40;0.22;;;;;;;0.26;100.00;100596.66;4778469;30;20056;-79
2022/02/22 09:13:27;;;;;;;3.53;0.30;;;;;;;0.29;100.00;100599.03;4776873;30;20035;-79
2022/02/22 09:15:53;;;;;;;2.88;0.38;;;;;;;0.32;100.00;100593.47;4773226;30;20124;-80
2022/02/22 09:18:19;;;;;;;0.40;0.20;;;;;;;0.27;100.00;100603.63;4767140;30;20081;-79
2022/02/22 09:20:45;;;;;;;0.50;0.30;;;;;;;0.33;100.00;100594.28;4769373;30;20036;-79
2022/02/22 09:23:11;;;;;;;0.93;0.30;;;;;;;0.39;100.00;100589.28;4769609;30;20060;-79
2022/02/22 09:25:36;;;;;;;0.77;0.20;;;;;;;0.61;100.00;100617.31;4771791;30;20054;-79
2022/02/22 09:28:06;;;;;;;1.30;0.47;;;;;;;0.63;100.00;100625.09;4780850;30;20043;-79
2022/02/22 09:30:33;;;;;;;0.68;0.20;;;;;;;0.63;100.00;100618.00;4775433;30;20050;-79
2022/02/22 09:33:01;;;;;;;1.42;0.50;;;;;;;0.45;100.00;100601.97;4770314;30;20486;-79
2022/02/22 09:35:28;;;;;;;0.40;0.20;;;;;;;0.59;100.00;100608.66;4768501;30;20044;-79
2022/02/22 09:37:55;;;;;;;0.55;0.20;;;;;;;0.66;100.00;100601.00;4779957;30;20039;-80
2022/02/22 09:40:22;;;;;;;1.10;0.47;;;;;;;0.61;100.00;100596.13;4784798;30;20438;-80
2022/02/22 09:42:47;;;;;;;1.20;0.28;;;;;;;0.76;100.00;100583.28;4772544;30;20118;-78
2022/02/22 09:45:13;;;;;;;0.63;0.20;;;;;;;0.83;100.00;100570.31;4773510;30;20477;-78
2022/02/22 09:47:41;;;;;;;0.55;0.30;;;;;;;0.82;100.00;100574.78;4772642;30;20033;-80
2022/02/22 09:50:08;;;;;;;0.43;0.30;;;;;;;0.85;100.00;100563.91;4773770;30;20124;-81
2022/02/22 09:52:34;;;;;;;0.90;0.40;;;;;;;0.91;100.00;100562.50;4772440;30;20368;-78
2022/02/22 09:55:00;;;;;;;0.95;0.30;;;;;;;0.93;100.00;100558.75;4771401;30;20040;-77
2022/02/22 09:57:25;;;;;;;0.60;0.30;;;;;;;1.03;100.00;100528.75;4770484;30;20032;-77
2022/02/22 09:59:51;;;;;;;0.93;0.30;;;;;;;1.07;100.00;100553.97;4770973;30;20104;-77
2022/02/22 10:02:18;;;;;;;0.93;0.20;;;;;;;1.03;100.00;100547.28;4770625;30;20042;-77
2022/02/22 10:04:47;;;;;;;0.70;0.30;;;;;;;1.02;100.00;100561.50;4772927;29;20034;-77
2022/02/22 10:07:15;;;;;;;0.52;0.30;;;;;;;1.16;100.00;100569.84;4765386;30;20133;-77
2022/02/22 10:09:55;;;;;;;0.40;0.30;;;;;;;1.29;100.00;100569.53;4765226;30;20038;-79
2022/02/22 10:12:38;;;;;;;1.77;0.32;;;;;;;1.36;100.00;100565.31;4768867;30;20482;-78
2022/02/22 10:15:06;;;;;;;1.52;0.30;;;;;;;1.49;100.00;100566.78;4767388;30;20056;-78
2022/02/22 10:17:39;;;;;;;2.08;0.40;;;;;;;1.40;100.00;100565.84;4769400;30;20035;-77
2022/02/22 10:20:07;;;;;;;0.77;0.30;;;;;;;1.38;100.00;100575.75;4769746;30;20031;-77
2022/02/22 10:22:32;;;;;;;1.08;0.40;;;;;;;1.47;100.00;100574.06;4765403;30;20046;-77
2022/02/22 10:25:09;;;;;;;1.65;0.30;;;;;;;1.33;100.00;100573.53;4767170;30;20047;-77
2022/02/22 10:27:42;;;;;;;0.93;0.40;;;;;;;1.21;100.00;100565.91;4769309;30;20051;-79
2022/02/22 10:30:39;;;;;;;0.60;0.30;;;;;;;1.16;100.00;100572.50;4777766;30;20027;-80
2022/02/22 10:33:25;;;;;;;0.45;0.30;;;;;;;1.12;100.00;100573.72;4769919;30;20051;-79
2022/02/22 10:36:04;;;;;;;1.67;0.30;;;;;;;1.03;100.00;100557.88;4765247;30;20049;-78
2022/02/22 10:38:31;;;;;;;1.05;0.30;;;;;;;1.04;100.00;100575.44;4767521;30;20093;-79
2022/02/22 10:41:19;;;;;;;0.35;0.20;;;;;;;0.98;100.00;100566.25;4774237;30;20031;-79
2022/02/22 10:43:56;;;;;;;0.90;0.30;;;;;;;1.04;100.00;100575.44;4772518;30;20040;-80
2022/02/22 10:46:32;;;;;;;0.63;0.30;;;;;;;1.05;100.00;100582.41;4772842;30;20118;-79
2022/02/22 10:49:23;;;;;;;1.05;0.47;;;;;;;1.10;100.00;100574.88;4772103;30;20028;-79
2022/02/22 10:51:52;;;;;;;1.35;0.30;;;;;;;1.06;100.00;100579.63;4767874;30;20081;-79
2022/02/22 10:54:25;;;;;;;0.60;0.20;;;;;;;1.02;100.00;100574.75;4780134;30;20042;-79
2022/02/22 10:56:52;;;;;;;1.33;0.40;;;;;;;1.02;100.00;100578.22;4774243;30;20036;-80
2022/02/22 10:59:22;;;;;;;3.50;0.30;;;;;;;1.02;100.00;100590.63;4778844;30;20046;-81
2022/02/22 11:01:49;;;;;;;0.30;0.30;;;;;;;0.99;100.00;100581.16;4785188;29;20019;-80
2022/02/22 11:04:14;;;;;;;0.50;0.30;;;;;;;1.03;100.00;100592.31;4788983;30;20114;-79
2022/02/22 11:06:40;;;;;;;2.85;0.40;;;;;;;1.04;100.00;100597.47;4782796;30;20081;-81
2022/02/22 11:09:07;;;;;;;0.60;0.30;;;;;;;1.03;100.00;100594.97;4780985;30;20039;-80
2022/02/22 11:11:32;;;;;;;1.08;0.30;;;;;;;0.98;100.00;100586.59;4773129;30;20063;-80
2022/02/22 11:14:00;;;;;;;0.38;0.20;;;;;;;0.76;100.00;100550.66;4775060;30;20047;-81
2022/02/22 11:16:26;;;;;;;1.05;0.40;;;;;;;0.85;100.00;100566.53;4788847;30;20066;-80